Tikanlik, China
Current Conditions -  °F | °C
As of 2:30 PM on Thursday 23 Oct 2014 (Local Time) from ZWWW Reporting Station
Smoke Smoke  
Wind Chill: 68°   Ceiling: Unl
Heat Index: 68°   Visibility: 2.1mi
Dew Point: 41°   Wind: 7mph
Humidity: 37%   Direction: 20°NNE
Pressure: 29.85"   Gusts: NA
Location:  40.63°N, 87.7°E
Report Text: ZWWW 230630Z 02003MPS 3500 FU NSC 20/05 Q1011 NOSIG
Loading
Personal Weather Stations






























Interactive Weather Map
Tropical Storm Tracking
New forecast layout! Learn more

10-Day Weather Forecast

Advertisements
Track Severe Weather on mobile